< Typhoon 196212 1962 Season Typhoon 196214 >
Typhoon 196213 (SARAH)
General InformationTrack Information on Google Maps || Disaster Info.ResourceGoogle EarthGE AnimationAtom FeedGeoJSON
Detalied Best Track (Time Zone = UTC)
Year Month Day Hour Lat. Long. Pressure (hPa) Wind (kt) Class Image Chart
1962 8 14 00 21.1 127.9 1008 0 2 -- Chart
1962 8 14 06 21.5 127.5 1008 0 2 -- Chart
1962 8 14 12 21.9 127.4 1008 0 2 -- Chart
1962 8 14 18 22.4 127.3 1007 0 2 -- Chart
1962 8 15 00 22.7 126.7 1005 0 2 -- Chart
1962 8 15 06 23.1 126.3 1004 0 9 -- Chart
1962 8 15 12 23.5 126.5 1004 0 9 -- Chart
1962 8 15 18 23.6 126.0 1004 0 9 -- Chart
1962 8 16 00 23.9 125.7 990 0 9 -- Chart
1962 8 16 06 24.0 125.6 988 0 9 -- Chart
1962 8 16 12 23.8 125.1 990 0 9 -- Chart
1962 8 16 18 23.6 125.0 990 0 9 -- Chart
1962 8 17 00 23.6 124.8 980 0 9 -- Chart
1962 8 17 06 23.5 124.5 980 0 9 -- Chart
1962 8 17 12 23.3 124.4 980 0 9 -- Chart
1962 8 17 18 22.9 124.4 980 0 9 -- Chart
1962 8 18 00 22.8 124.5 980 0 9 -- Chart
1962 8 18 06 23.0 125.2 975 0 9 -- Chart
1962 8 18 12 23.2 125.9 975 0 9 -- Chart
1962 8 18 18 24.6 126.1 975 0 9 -- Chart
1962 8 19 00 25.6 126.2 980 0 9 -- Chart
1962 8 19 06 26.7 126.2 985 0 9 -- Chart
1962 8 19 12 27.8 126.2 985 0 9 -- Chart
1962 8 19 18 28.7 126.0 980 0 9 -- Chart
1962 8 20 00 29.2 126.3 985 0 9 -- Chart
1962 8 20 06 29.6 126.7 982 0 9 -- Chart
1962 8 20 12 30.4 127.5 980 0 9 -- Chart
1962 8 20 18 30.4 128.1 980 0 9 -- Chart
1962 8 21 00 30.7 128.7 980 0 9 -- Chart
1962 8 21 06 31.3 129.3 980 0 9 -- Chart
1962 8 21 12 31.7 129.9 980 0 9 -- Chart
1962 8 21 18 32.5 130.9 985 0 9 -- Chart
1962 8 22 00 33.5 131.7 995 0 9 -- Chart
1962 8 22 06 34.6 133.5 998 0 9 -- Chart
1962 8 22 12 35.5 135.6 1004 0 2 -- Chart
1962 8 22 18 37.4 137.8 1004 0 2 -- Chart
1962 8 23 00 39.0 141.0 1004 0 6 -- Chart
1962 8 23 06 40.2 142.7 1004 0 6 -- Chart
1962 8 23 12 41.8 145.2 1004 0 6 -- Chart
1962 8 23 18 43.0 149.0 1002 0 6 -- Chart
1962 8 24 00 43.1 154.0 1000 0 6 -- Chart
1962 8 24 06 43.9 158.0 1000 0 6 -- Chart
1962 8 24 12 43.7 160.4 1000 0 6 -- Chart
1962 8 24 18 43.0 163.0 1000 0 6 -- Chart
1962 8 25 00 44.0 169.0 1000 0 6 -- Chart
1962 8 25 06 46.0 171.0 998 0 6 -- Chart
1962 8 25 12 48.0 172.0 994 0 6 -- Chart
1962 8 25 18 51.5 173.1 984 0 6 -- Chart
Japan Meteorological Agency Best Track Data | Correction Date : 1989-06-01
< Typhoon 196212 1962 Season Typhoon 196214 >

Help